createdAt,value
2023-04-10T00:01:22.503Z,100287.67
2023-04-10T00:04:05.349Z,100285.92
2023-04-10T00:06:35.386Z,100286.85
2023-04-10T00:09:03.856Z,100291.12
2023-04-10T00:11:32.398Z,100290.91
2023-04-10T00:14:02.085Z,100288.91
2023-04-10T00:16:32.709Z,100290.46
2023-04-10T00:19:01.707Z,100288.42
2023-04-10T00:21:29.772Z,100287.27
2023-04-10T00:24:01.607Z,100287.67
2023-04-10T00:26:31.387Z,100288.37
2023-04-10T00:29:00.740Z,100288.60
2023-04-10T00:31:49.134Z,100289.73
2023-04-10T00:34:17.938Z,100284.11
2023-04-10T00:36:47.300Z,100287.15
2023-04-10T00:39:16.631Z,100285.47
2023-04-10T00:41:49.155Z,100284.11
2023-04-10T00:44:17.725Z,100286.98
2023-04-10T00:46:45.790Z,100285.17
2023-04-10T00:49:14.843Z,100287.04
2023-04-10T00:51:43.778Z,100281.13
2023-04-10T00:54:13.516Z,100283.70
2023-04-10T00:56:41.793Z,100285.20
2023-04-10T00:59:10.465Z,100283.52
2023-04-10T01:01:41.391Z,100282.33
2023-04-10T01:04:15.259Z,100286.95
2023-04-10T01:07:00.689Z,100283.80
2023-04-10T01:09:41.843Z,100287.59
2023-04-10T01:12:26.234Z,100282.90
2023-04-10T01:15:05.294Z,100280.20
2023-04-10T01:17:40.627Z,100281.84
2023-04-10T01:20:26.293Z,100277.98
2023-04-10T01:23:33.165Z,100276.60
2023-04-10T01:26:03.394Z,100277.34
2023-04-10T01:29:02.407Z,100274.24
2023-04-10T01:31:42.373Z,100276.11
2023-04-10T01:34:16.672Z,100274.91
2023-04-10T01:36:49.682Z,100274.39
2023-04-10T01:39:21.664Z,100275.08
2023-04-10T01:41:52.776Z,100269.19
2023-04-10T01:44:28.408Z,100273.29
2023-04-10T01:46:56.639Z,100269.63
2023-04-10T01:49:28.680Z,100276.84
2023-04-10T01:52:06.101Z,100276.16
2023-04-10T01:54:42.340Z,100277.48
2023-04-10T01:57:16.865Z,100278.15
2023-04-10T02:00:00.323Z,100279.80
2023-04-10T02:02:35.170Z,100277.67
2023-04-10T02:05:11.318Z,100279.17
2023-04-10T02:07:52.352Z,100283.86
2023-04-10T02:10:52.713Z,100283.52
2023-04-10T02:13:23.883Z,100284.36
2023-04-10T02:15:56.366Z,100283.14
2023-04-10T02:18:28.853Z,100282.05
2023-04-10T02:21:00.389Z,100281.84
2023-04-10T02:23:34.750Z,100282.27
2023-04-10T02:26:09.087Z,100285.85
2023-04-10T02:28:42.369Z,100282.73
2023-04-10T02:31:13.225Z,100287.27
2023-04-10T02:33:45.471Z,100290.11
2023-04-10T02:36:16.034Z,100285.35
2023-04-10T02:38:48.556Z,100287.96
2023-04-10T02:41:20.915Z,100285.96
2023-04-10T02:43:51.515Z,100286.76
2023-04-10T02:46:27.083Z,100289.55
2023-04-10T02:57:06.723Z,100295.36
2023-04-10T02:59:36.438Z,100295.20
2023-04-10T03:02:05.515Z,100294.70
2023-04-10T03:04:35.580Z,100296.13
2023-04-10T03:07:06.336Z,100298.40
2023-04-10T03:09:37.592Z,100298.25
2023-04-10T03:12:05.797Z,100295.86
2023-04-10T03:14:35.722Z,100294.77
2023-04-10T03:17:04.314Z,100296.02
2023-04-10T03:19:32.829Z,100297.71
2023-04-10T03:22:02.464Z,100300.07
2023-04-10T03:24:31.127Z,100299.37
2023-04-10T03:27:00.465Z,100298.04
2023-04-10T03:29:29.778Z,100299.56
2023-04-10T03:31:57.933Z,100302.51
2023-04-10T03:34:27.251Z,100300.88
2023-04-10T03:36:55.283Z,100301.88
2023-04-10T03:39:24.807Z,100304.89
2023-04-10T03:41:53.631Z,100303.02
2023-04-10T03:44:25.429Z,100303.27
2023-04-10T03:46:56.347Z,100305.10
2023-04-10T03:49:25.000Z,100305.00
2023-04-10T03:51:56.923Z,100304.38
2023-04-10T03:54:25.367Z,100302.89
2023-04-10T03:56:53.458Z,100304.40
2023-04-10T03:59:28.376Z,100307.54
2023-04-10T04:02:02.728Z,100307.02
2023-04-10T04:04:32.369Z,100307.91
2023-04-10T04:07:15.418Z,100311.48
2023-04-10T04:10:02.164Z,100317.37
2023-04-10T04:12:59.849Z,100316.75
2023-04-10T04:15:44.811Z,100325.14
2023-04-10T04:18:19.168Z,100325.45
2023-04-10T04:20:52.240Z,100327.60
2023-04-10T04:23:40.287Z,100327.21
2023-04-10T04:26:31.183Z,100330.20
2023-04-10T04:29:15.531Z,100332.96
2023-04-10T04:32:08.945Z,100333.98
2023-04-10T04:35:17.140Z,100333.48
2023-04-10T04:38:08.776Z,100336.90
2023-04-10T04:40:48.818Z,100336.88
2023-04-10T04:43:25.436Z,100337.27
2023-04-10T04:46:14.012Z,100339.52
2023-04-10T04:49:12.296Z,100339.93
2023-04-10T04:51:56.473Z,100340.56
2023-04-10T04:54:50.294Z,100341.73
2023-04-10T04:57:39.275Z,100344.33
2023-04-10T05:00:24.016Z,100343.66
2023-04-10T05:03:09.320Z,100343.92
2023-04-10T05:05:56.738Z,100344.77
2023-04-10T05:08:42.827Z,100347.32
2023-04-10T05:11:42.244Z,100350.10
2023-04-10T05:14:33.158Z,100351.88
2023-04-10T05:17:11.277Z,100352.61
2023-04-10T05:19:52.736Z,100355.84
2023-04-10T05:22:45.483Z,100361.33
2023-04-10T05:25:34.529Z,100362.63
2023-04-10T05:28:15.872Z,100360.64
2023-04-10T05:31:04.302Z,100358.89
2023-04-10T05:33:50.475Z,100363.33
2023-04-10T05:36:40.498Z,100360.28
2023-04-10T05:39:19.246Z,100360.91
2023-04-10T05:42:24.836Z,100365.04
2023-04-10T05:45:25.676Z,100363.31
2023-04-10T05:48:26.090Z,100365.34
2023-04-10T05:51:17.755Z,100366.70
2023-04-10T05:54:04.938Z,100368.48
2023-04-10T05:56:48.828Z,100364.55
2023-04-10T05:59:37.716Z,100367.81
2023-04-10T06:02:36.710Z,100366.20
2023-04-10T06:05:07.940Z,100372.32
2023-04-10T06:07:37.909Z,100369.56
2023-04-10T06:10:07.675Z,100369.83
2023-04-10T06:12:37.114Z,100368.11
2023-04-10T06:15:11.546Z,100373.45
2023-04-10T06:17:44.336Z,100377.70
2023-04-10T06:20:12.695Z,100378.30
2023-04-10T06:22:41.978Z,100385.78
2023-04-10T06:25:11.334Z,100386.30
2023-04-10T06:27:40.942Z,100386.86
2023-04-10T06:30:11.315Z,100385.86
2023-04-10T06:32:40.179Z,100384.50
2023-04-10T06:35:09.143Z,100385.77
2023-04-10T06:37:39.876Z,100384.88
2023-04-10T06:40:08.905Z,100385.27
2023-04-10T06:42:37.124Z,100384.35
2023-04-10T06:45:14.418Z,100380.21
2023-04-10T06:47:42.425Z,100379.88
2023-04-10T06:50:15.542Z,100382.48
2023-04-10T06:52:44.474Z,100380.27
2023-04-10T06:55:15.468Z,100383.21
2023-04-10T06:58:03.440Z,100391.07
2023-04-10T07:00:31.665Z,100389.92
2023-04-10T07:03:01.144Z,100386.44
2023-04-10T07:05:31.163Z,100389.52
2023-04-10T07:08:02.181Z,100392.08
2023-04-10T07:10:31.605Z,100394.49
2023-04-10T07:12:59.838Z,100395.83
2023-04-10T07:15:40.685Z,100396.27
2023-04-10T07:18:08.634Z,100402.58
2023-04-10T07:20:36.906Z,100400.89
2023-04-10T07:23:18.859Z,100403.14
2023-04-10T07:25:47.296Z,100406.70
2023-04-10T07:28:15.433Z,100404.04
2023-04-10T07:30:45.316Z,100407.80
2023-04-10T07:33:14.871Z,100406.50
2023-04-10T07:35:43.055Z,100405.23
2023-04-10T07:38:13.189Z,100412.02
2023-04-10T07:40:41.698Z,100411.13
2023-04-10T07:43:09.630Z,100412.37
2023-04-10T07:45:38.900Z,100414.98
2023-04-10T07:48:07.051Z,100416.75
2023-04-10T07:50:41.751Z,100422.08
2023-04-10T07:53:11.027Z,100420.11
2023-04-10T07:55:42.358Z,100419.21
2023-04-10T07:58:15.337Z,100418.11
2023-04-10T08:00:45.627Z,100417.10
2023-04-10T08:03:15.057Z,100422.42
2023-04-10T08:05:44.526Z,100421.30
2023-04-10T08:08:12.472Z,100423.70
2023-04-10T08:10:45.706Z,100423.58
2023-04-10T08:13:15.713Z,100423.02
2023-04-10T08:15:43.752Z,100422.77
2023-04-10T08:18:15.775Z,100421.42
2023-04-10T08:20:44.313Z,100421.54
2023-04-10T08:23:19.938Z,100420.63
2023-04-10T08:26:00.627Z,100420.48
2023-04-10T08:28:32.578Z,100425.41
2023-04-10T08:31:00.713Z,100426.60
2023-04-10T08:33:30.160Z,100423.07
2023-04-10T08:36:00.236Z,100426.36
2023-04-10T08:38:31.845Z,100426.00
2023-04-10T08:40:59.725Z,100425.91
2023-04-10T08:43:27.725Z,100423.73
2023-04-10T08:45:58.701Z,100410.67
2023-04-10T08:48:28.144Z,100410.80
2023-04-10T08:50:56.311Z,100412.23
2023-04-10T08:53:24.217Z,100413.73
2023-04-10T08:55:52.191Z,100413.02
2023-04-10T08:58:21.535Z,100411.14
2023-04-10T09:00:49.638Z,100416.72
2023-04-10T09:03:20.496Z,100412.27
2023-04-10T09:05:48.649Z,100416.89
2023-04-10T09:08:16.636Z,100416.27
2023-04-10T09:10:47.493Z,100420.13
2023-04-10T09:13:16.444Z,100418.29
2023-04-10T09:15:58.011Z,100421.71
2023-04-10T09:18:41.841Z,100422.29
2023-04-10T09:21:11.121Z,100421.42
2023-04-10T09:23:39.850Z,100424.16
2023-04-10T09:26:26.304Z,100422.39
2023-04-10T09:28:58.388Z,100422.84
2023-04-10T09:31:30.182Z,100426.75
2023-04-10T09:34:07.805Z,100429.95
2023-04-10T09:36:38.272Z,100433.41
2023-04-10T09:39:08.890Z,100439.17
2023-04-10T09:41:47.907Z,100440.85
2023-04-10T09:44:19.290Z,100435.71
2023-04-10T09:46:51.705Z,100438.21
2023-04-10T09:49:20.790Z,100441.80
2023-04-10T09:51:52.885Z,100438.10
2023-04-10T09:54:29.525Z,100438.08
2023-04-10T09:56:59.721Z,100437.77
2023-04-10T09:59:31.375Z,100434.14
2023-04-10T10:02:02.713Z,100433.05
2023-04-10T10:04:30.935Z,100435.13
2023-04-10T10:06:59.228Z,100435.13
2023-04-10T10:09:29.975Z,100437.64
2023-04-10T10:11:57.978Z,100433.42
2023-04-10T10:14:29.269Z,100438.38
2023-04-10T10:17:00.523Z,100433.02
2023-04-10T10:20:05.801Z,100430.68
2023-04-10T10:22:50.156Z,100429.07
2023-04-10T10:25:22.405Z,100429.11
2023-04-10T10:27:50.475Z,100426.56
2023-04-10T10:30:29.654Z,100425.81
2023-04-10T10:33:00.429Z,100423.48
2023-04-10T10:35:30.790Z,100425.50
2023-04-10T10:38:04.311Z,100423.40
2023-04-10T10:40:33.871Z,100423.77
2023-04-10T10:43:08.448Z,100423.44
2023-04-10T10:45:39.842Z,100422.67
2023-04-10T10:48:08.842Z,100419.74
2023-04-10T10:50:59.774Z,100416.80
2023-04-10T10:53:43.448Z,100418.70
2023-04-10T10:56:27.579Z,100420.67
2023-04-10T10:59:02.842Z,100422.16
2023-04-10T11:01:31.813Z,100420.20
2023-04-10T11:04:01.802Z,100418.77
2023-04-10T11:06:48.706Z,100415.63
2023-04-10T11:09:39.899Z,100415.15
2023-04-10T11:12:08.173Z,100415.60
2023-04-10T11:14:36.748Z,100414.95
2023-04-10T11:17:13.566Z,100414.56
2023-04-10T11:20:02.594Z,100418.96
2023-04-10T11:22:32.715Z,100417.42
2023-04-10T11:25:02.024Z,100412.25
2023-04-10T11:27:45.690Z,100418.66
2023-04-10T11:30:29.489Z,100408.91
2023-04-10T11:32:58.089Z,100409.29
2023-04-10T11:35:27.187Z,100406.38
2023-04-10T11:38:14.632Z,100400.36
2023-04-10T11:40:55.904Z,100399.09
2023-04-10T11:43:25.622Z,100397.73
2023-04-10T11:46:04.689Z,100395.20
2023-04-10T11:48:34.931Z,100393.48
2023-04-10T11:51:09.659Z,100385.64
2023-04-10T11:53:42.853Z,100382.91
2023-04-10T11:56:17.675Z,100380.54
2023-04-10T11:58:49.648Z,100373.67
2023-04-10T12:01:21.581Z,100372.70
2023-04-10T12:04:00.947Z,100369.73
2023-04-10T12:06:33.689Z,100367.91
2023-04-10T12:09:13.441Z,100362.58
2023-04-10T12:11:59.790Z,100363.09
2023-04-10T12:14:35.661Z,100357.82
2023-04-10T12:17:07.708Z,100350.69
2023-04-10T12:19:54.024Z,100350.97
2023-04-10T12:22:24.667Z,100347.94
2023-04-10T12:24:55.688Z,100348.77
2023-04-10T12:27:26.777Z,100353.86
2023-04-10T12:29:58.359Z,100346.98
2023-04-10T12:32:30.859Z,100345.78
2023-04-10T12:35:04.561Z,100342.41
2023-04-10T12:37:54.726Z,100340.06
2023-04-10T12:40:24.758Z,100337.55
2023-04-10T12:50:30.122Z,100324.63
2023-04-10T12:53:02.401Z,100322.55
2023-04-10T12:55:31.352Z,100321.50
2023-04-10T12:58:16.655Z,100318.30
2023-04-10T13:00:50.751Z,100316.25
2023-04-10T13:03:19.810Z,100316.73
2023-04-10T13:05:53.471Z,100312.35
2023-04-10T13:08:32.774Z,100306.66
2023-04-10T13:11:03.916Z,100305.30
2023-04-10T13:13:33.891Z,100301.54
2023-04-10T13:16:02.103Z,100299.77
2023-04-10T13:18:30.291Z,100298.68
2023-04-10T13:20:58.249Z,100296.34
2023-04-10T13:23:27.463Z,100308.45
2023-04-10T13:25:56.923Z,100305.41
2023-04-10T13:28:25.883Z,100307.47
2023-04-10T13:30:54.007Z,100308.08
2023-04-10T13:33:25.023Z,100308.88
2023-04-10T13:35:54.009Z,100308.89
2023-04-10T13:38:22.394Z,100306.54
2023-04-10T13:40:53.634Z,100302.80
2023-04-10T13:43:22.200Z,100295.93
2023-04-10T13:45:50.635Z,100297.38
2023-04-10T13:48:24.393Z,100296.23
2023-04-10T13:50:55.616Z,100289.30
2023-04-10T13:53:25.611Z,100293.01
2023-04-10T13:55:53.640Z,100293.35
2023-04-10T13:58:21.989Z,100291.13
2023-04-10T14:00:50.438Z,100291.46
2023-04-10T14:03:19.645Z,100292.02
2023-04-10T14:05:48.612Z,100289.39
2023-04-10T14:08:21.063Z,100287.52
2023-04-10T14:10:52.841Z,100287.21
2023-04-10T14:13:21.293Z,100285.45
2023-04-10T14:15:52.161Z,100281.11
2023-04-10T14:18:20.503Z,100279.13
2023-04-10T14:20:54.023Z,100280.71
2023-04-10T14:23:22.769Z,100277.28
2023-04-10T14:25:50.765Z,100273.39
2023-04-10T14:28:18.978Z,100269.41
2023-04-10T14:30:49.416Z,100271.47
2023-04-10T14:33:22.352Z,100267.58
2023-04-10T14:35:53.098Z,100262.70
2023-04-10T14:38:21.260Z,100265.45
2023-04-10T14:40:51.993Z,100262.30
2023-04-10T14:43:22.235Z,100260.73
2023-04-10T14:45:55.354Z,100261.42
2023-04-10T14:48:24.347Z,100259.58
2023-04-10T14:50:55.648Z,100253.20
2023-04-10T14:53:24.392Z,100249.22
2023-04-10T14:55:53.204Z,100249.43
2023-04-10T14:58:21.451Z,100246.92
2023-04-10T15:00:51.639Z,100246.21
2023-04-10T15:03:21.144Z,100244.36
2023-04-10T15:05:50.541Z,100243.83
2023-04-10T15:08:18.517Z,100243.02
2023-04-10T15:10:50.195Z,100240.42
2023-04-10T15:13:19.455Z,100239.94
2023-04-10T15:15:52.011Z,100234.08
2023-04-10T15:18:21.118Z,100232.32
2023-04-10T15:20:58.639Z,100229.16
2023-04-10T15:23:28.499Z,100228.77
2023-04-10T15:25:59.622Z,100229.21
2023-04-10T15:28:29.776Z,100235.02
2023-04-10T15:30:58.093Z,100231.50
2023-04-10T15:33:26.778Z,100224.57
2023-04-10T15:35:56.101Z,100224.33
2023-04-10T15:38:26.283Z,100220.77
2023-04-10T15:40:57.849Z,100216.08
2023-04-10T15:43:25.990Z,100213.20
2023-04-10T15:45:56.934Z,100212.06
2023-04-10T15:48:25.382Z,100214.13
2023-04-10T15:50:59.773Z,100220.77
2023-04-10T15:53:30.072Z,100215.64
2023-04-10T15:55:58.440Z,100213.02
2023-04-10T15:58:29.760Z,100215.68
2023-04-10T16:00:58.079Z,100216.10
2023-04-10T16:03:29.915Z,100210.52
2023-04-10T16:05:58.874Z,100206.73
2023-04-10T16:08:28.053Z,100202.42
2023-04-10T16:10:57.083Z,100205.13
2023-04-10T16:13:25.087Z,100204.48
2023-04-10T16:15:53.246Z,100200.95
2023-04-10T16:18:21.226Z,100200.39
2023-04-10T16:20:53.262Z,100198.62
2023-04-10T16:23:21.293Z,100200.64
2023-04-10T16:25:51.616Z,100201.98
2023-04-10T16:28:22.935Z,100203.55
2023-04-10T16:30:51.102Z,100203.58
2023-04-10T16:33:25.342Z,100200.67
2023-04-10T16:35:54.110Z,100204.53
2023-04-10T16:38:52.217Z,100205.84
2023-04-10T16:41:21.169Z,100207.48
2023-04-10T16:43:50.022Z,100204.74
2023-04-10T16:46:18.794Z,100204.91
2023-04-10T16:48:49.634Z,100209.39
2023-04-10T16:51:19.892Z,100214.26
2023-04-10T16:53:49.809Z,100216.49
2023-04-10T16:56:19.809Z,100217.40
2023-04-10T17:06:41.966Z,100218.04
2023-04-10T17:09:11.760Z,100216.37
2023-04-10T17:11:39.637Z,100221.04
2023-04-10T17:14:08.395Z,100218.12
2023-04-10T17:16:37.193Z,100221.14
2023-04-10T17:19:06.278Z,100215.73
2023-04-10T17:21:34.946Z,100222.14
2023-04-10T17:24:09.831Z,100221.25
2023-04-10T17:26:38.327Z,100223.35
2023-04-10T17:29:06.730Z,100225.29
2023-04-10T17:31:38.081Z,100227.77
2023-04-10T17:34:12.372Z,100228.10
2023-04-10T17:36:49.428Z,100227.74
2023-04-10T17:39:17.508Z,100225.61
2023-04-10T17:41:47.028Z,100227.05
2023-04-10T17:44:15.507Z,100226.48
2023-04-10T17:46:43.609Z,100228.61
2023-04-10T17:49:15.122Z,100229.71
2023-04-10T17:51:43.370Z,100233.05
2023-04-10T17:54:11.773Z,100232.55
2023-04-10T17:56:39.878Z,100234.39
2023-04-10T17:59:11.198Z,100233.96
2023-04-10T18:01:41.339Z,100237.09
2023-04-10T18:04:09.804Z,100236.39
2023-04-10T18:06:37.959Z,100235.58
2023-04-10T18:09:06.566Z,100234.37
2023-04-10T18:11:35.475Z,100232.27
2023-04-10T18:14:05.302Z,100234.14
2023-04-10T18:16:36.319Z,100233.70
2023-04-10T18:19:05.275Z,100232.16
2023-04-10T18:21:42.018Z,100229.75
2023-04-10T18:24:11.201Z,100231.45
2023-04-10T18:26:40.692Z,100236.77
2023-04-10T18:29:14.193Z,100237.06
2023-04-10T18:31:42.281Z,100236.92
2023-04-10T18:34:10.643Z,100239.06
2023-04-10T18:36:39.068Z,100237.08
2023-04-10T18:39:08.457Z,100233.83
2023-04-10T18:41:38.462Z,100236.63
2023-04-10T18:44:07.275Z,100236.67
2023-04-10T18:46:42.789Z,100232.30
2023-04-10T18:49:14.570Z,100236.21
2023-04-10T18:51:43.358Z,100237.52
2023-04-10T18:54:13.768Z,100240.05
2023-04-10T18:56:49.157Z,100242.55
2023-04-10T18:59:17.358Z,100239.18
2023-04-10T19:01:47.579Z,100240.20
2023-04-10T19:04:15.885Z,100244.00
2023-04-10T19:06:46.370Z,100247.38
2023-04-10T19:09:14.741Z,100247.77
2023-04-10T19:11:42.963Z,100249.11
2023-04-10T19:14:14.867Z,100248.60
2023-04-10T19:16:44.410Z,100249.23
2023-04-10T19:19:15.693Z,100246.83
2023-04-10T19:21:50.560Z,100248.04
2023-04-10T19:24:19.315Z,100248.75
2023-04-10T19:26:47.722Z,100246.86
2023-04-10T19:29:20.283Z,100244.05
2023-04-10T19:31:51.404Z,100246.59
2023-04-10T19:34:21.099Z,100248.94
2023-04-10T19:36:49.235Z,100246.38
2023-04-10T19:39:17.242Z,100243.52
2023-04-10T19:41:47.136Z,100243.84
2023-04-10T19:44:15.320Z,100240.17
2023-04-10T19:46:45.530Z,100238.07
2023-04-10T19:49:13.745Z,100241.73
2023-04-10T19:51:41.624Z,100241.56
2023-04-10T19:54:09.750Z,100239.94
2023-04-10T19:56:38.391Z,100237.64
2023-04-10T19:59:08.082Z,100231.27
2023-04-10T20:01:36.460Z,100232.95
2023-04-10T20:04:04.956Z,100230.08
2023-04-10T20:06:33.220Z,100227.79
2023-04-10T20:09:02.010Z,100227.70
2023-04-10T20:11:30.608Z,100228.67
2023-04-10T20:13:59.913Z,100227.80
2023-04-10T20:16:29.576Z,100223.88
2023-04-10T20:18:57.596Z,100225.22
2023-04-10T20:21:27.740Z,100225.84
2023-04-10T20:23:57.697Z,100225.31
2023-04-10T20:26:26.020Z,100225.05
2023-04-10T20:28:54.614Z,100223.16
2023-04-10T20:31:23.324Z,100226.89
2023-04-10T20:33:51.363Z,100227.10
2023-04-10T20:36:19.283Z,100228.23
2023-04-10T20:38:48.772Z,100224.61
2023-04-10T20:41:16.957Z,100228.16
2023-04-10T20:43:46.127Z,100221.63
2023-04-10T20:46:14.343Z,100218.69
2023-04-10T20:48:45.870Z,100220.27
2023-04-10T20:51:13.709Z,100221.09
2023-04-10T20:53:41.586Z,100221.75
2023-04-10T20:56:09.723Z,100223.06
2023-04-10T20:58:37.690Z,100220.41
2023-04-10T21:01:08.201Z,100224.17
2023-04-10T21:03:36.669Z,100213.55
2023-04-10T21:06:04.920Z,100214.69
2023-04-10T21:08:33.432Z,100209.03
2023-04-10T21:11:01.881Z,100208.17
2023-04-10T21:13:30.631Z,100203.50
2023-04-10T21:15:58.481Z,100207.28
2023-04-10T21:18:27.360Z,100210.73
2023-04-10T21:20:59.519Z,100210.04
2023-04-10T21:23:27.621Z,100206.88
2023-04-10T21:25:55.904Z,100207.88
2023-04-10T21:28:24.932Z,100210.04
2023-04-10T21:30:52.843Z,100206.05
2023-04-10T21:41:08.774Z,100206.71
2023-04-10T21:43:38.510Z,100210.70
2023-04-10T21:46:08.098Z,100211.08
2023-04-10T21:48:36.161Z,100211.45
2023-04-10T21:51:04.141Z,100209.38
2023-04-10T21:53:33.271Z,100207.15
2023-04-10T21:56:01.181Z,100204.45
2023-04-10T21:58:32.312Z,100203.66
2023-04-10T22:01:00.902Z,100201.34
2023-04-10T22:03:30.966Z,100199.11
2023-04-10T22:06:01.809Z,100201.72
2023-04-10T22:08:32.486Z,100201.81
2023-04-10T22:11:00.538Z,100197.30
2023-04-10T22:13:31.512Z,100195.17
2023-04-10T22:16:01.910Z,100190.27
2023-04-10T22:18:31.443Z,100187.36
2023-04-10T22:21:07.285Z,100186.17
2023-04-10T22:23:36.979Z,100186.14
2023-04-10T22:26:05.352Z,100187.20
2023-04-10T22:28:33.439Z,100187.10
2023-04-10T22:31:01.700Z,100186.65
2023-04-10T22:33:31.702Z,100187.48
2023-04-10T22:36:00.513Z,100185.39
2023-04-10T22:38:28.547Z,100184.85
2023-04-10T22:40:57.826Z,100185.67
2023-04-10T22:43:25.709Z,100183.60
2023-04-10T22:45:53.737Z,100177.98
2023-04-10T22:48:22.019Z,100177.04
2023-04-10T22:50:49.907Z,100172.07
2023-04-10T22:53:19.121Z,100172.15
2023-04-10T22:55:47.419Z,100170.77
2023-04-10T22:58:17.952Z,100167.55
2023-04-10T23:00:45.811Z,100168.94
2023-04-10T23:03:14.034Z,100163.46
2023-04-10T23:05:47.060Z,100162.94
2023-04-10T23:08:15.403Z,100159.48
2023-04-10T23:10:43.602Z,100158.66
2023-04-10T23:13:11.804Z,100152.20
2023-04-10T23:15:40.846Z,100149.72
2023-04-10T23:18:08.823Z,100147.96
2023-04-10T23:20:37.295Z,100150.48
2023-04-10T23:30:45.877Z,100142.39
2023-04-10T23:33:13.806Z,100139.95
2023-04-10T23:35:42.494Z,100137.61
2023-04-10T23:38:10.720Z,100132.59
2023-04-10T23:40:38.875Z,100130.36
2023-04-10T23:43:07.188Z,100130.84
2023-04-10T23:45:35.089Z,100128.27
2023-04-10T23:48:05.504Z,100124.64
2023-04-10T23:50:34.305Z,100119.35
2023-04-10T23:53:04.068Z,100117.62
2023-04-10T23:55:35.676Z,100117.69
2023-04-10T23:58:03.905Z,100114.70
